createdAt,value
2018-05-27T00:01:23.965Z,91.70
2018-05-27T00:03:51.884Z,92.80
2018-05-27T00:06:19.401Z,92.80
2018-05-27T00:08:47.316Z,92.90
2018-05-27T00:11:14.825Z,92.90
2018-05-27T00:13:42.734Z,93.60
2018-05-27T00:16:10.249Z,93.60
2018-05-27T00:18:37.745Z,93.90
2018-05-27T00:21:05.259Z,94.20
2018-05-27T00:23:33.141Z,95.10
2018-05-27T00:26:01.029Z,95.50
2018-05-27T00:28:28.537Z,95.50
2018-05-27T00:30:56.448Z,95.10
2018-05-27T00:33:23.951Z,95.20
2018-05-27T00:35:51.461Z,95.60
2018-05-27T00:38:18.961Z,96.20
2018-05-27T00:40:46.455Z,96.50
2018-05-27T00:43:14.354Z,96.40
2018-05-27T00:45:41.848Z,96.40
2018-05-27T00:48:09.357Z,96.60
2018-05-27T00:50:36.884Z,97.00
2018-05-27T00:53:04.765Z,97.00
2018-05-27T00:55:32.261Z,97.00
2018-05-27T00:57:59.750Z,96.90
2018-05-27T01:00:27.250Z,97.00
2018-05-27T01:02:54.793Z,97.00
2018-05-27T01:05:22.307Z,97.00
2018-05-27T01:07:49.812Z,97.00
2018-05-27T01:10:17.358Z,97.00
2018-05-27T01:12:45.241Z,97.00
2018-05-27T01:15:12.749Z,97.00
2018-05-27T01:17:40.255Z,97.00
2018-05-27T01:20:07.765Z,97.00
2018-05-27T01:22:35.268Z,97.00
2018-05-27T01:25:02.754Z,97.00
2018-05-27T01:27:30.277Z,97.00
2018-05-27T01:29:58.188Z,97.00
2018-05-27T01:32:25.689Z,97.00
2018-05-27T01:34:53.600Z,97.00
2018-05-27T01:37:21.125Z,97.00
2018-05-27T01:39:49.013Z,97.00
2018-05-27T01:42:16.523Z,97.00
2018-05-27T01:44:44.044Z,97.00
2018-05-27T01:47:11.527Z,97.00
2018-05-27T01:49:39.048Z,97.00
2018-05-27T01:52:06.551Z,97.00
2018-05-27T01:54:34.062Z,97.00
2018-05-27T01:57:01.561Z,97.00
2018-05-27T01:59:29.063Z,97.00
2018-05-27T02:01:56.570Z,97.00
2018-05-27T02:04:24.091Z,97.00
2018-05-27T02:06:51.600Z,97.00
2018-05-27T02:09:19.120Z,97.00
2018-05-27T02:11:46.645Z,97.00
2018-05-27T02:14:14.172Z,97.00
2018-05-27T02:16:41.679Z,97.00
2018-05-27T02:19:09.182Z,97.00
2018-05-27T02:21:36.673Z,97.00
2018-05-27T02:24:04.576Z,97.00
2018-05-27T02:26:32.081Z,97.00
2018-05-27T02:28:59.984Z,97.00
2018-05-27T02:31:27.509Z,97.00
2018-05-27T02:33:55.415Z,97.00
2018-05-27T02:36:22.918Z,97.00
2018-05-27T02:38:50.448Z,97.00
2018-05-27T02:41:17.959Z,97.00
2018-05-27T02:43:45.838Z,97.00
2018-05-27T02:46:13.353Z,97.00
2018-05-27T02:48:40.830Z,97.00
2018-05-27T02:51:08.723Z,97.00
2018-05-27T02:53:36.231Z,97.00
2018-05-27T02:56:03.730Z,97.00
2018-05-27T02:58:31.236Z,97.00
2018-05-27T03:00:58.733Z,97.00
2018-05-27T03:03:26.660Z,97.00
2018-05-27T03:05:54.163Z,97.00
2018-05-27T03:08:21.679Z,97.00
2018-05-27T03:10:49.191Z,97.00
2018-05-27T03:13:16.690Z,97.00
2018-05-27T03:15:44.194Z,97.00
2018-05-27T03:18:11.725Z,97.00
2018-05-27T03:20:39.228Z,97.00
2018-05-27T03:23:06.736Z,97.00
2018-05-27T03:25:34.244Z,97.00
2018-05-27T03:28:01.742Z,97.00
2018-05-27T03:30:29.298Z,97.00
2018-05-27T03:32:56.775Z,97.00
2018-05-27T03:35:24.293Z,97.00
2018-05-27T03:37:51.781Z,97.00
2018-05-27T03:40:19.286Z,97.00
2018-05-27T03:42:46.785Z,97.00
2018-05-27T03:45:14.286Z,97.00
2018-05-27T03:47:41.793Z,97.00
2018-05-27T03:50:09.329Z,97.00
2018-05-27T03:52:36.896Z,97.00
2018-05-27T03:55:04.412Z,97.00
2018-05-27T03:57:32.312Z,97.00
2018-05-27T04:00:00.672Z,97.00
2018-05-27T04:02:28.170Z,97.00
2018-05-27T04:05:07.509Z,97.00
2018-05-27T04:07:46.956Z,97.00
2018-05-27T04:10:14.458Z,97.00
2018-05-27T04:12:41.968Z,97.00
2018-05-27T04:15:09.477Z,97.00
2018-05-27T04:17:36.983Z,97.00
2018-05-27T04:20:04.497Z,97.00
2018-05-27T04:22:32.485Z,97.00
2018-05-27T04:24:59.973Z,97.00
2018-05-27T04:27:27.472Z,97.00
2018-05-27T04:29:55.904Z,97.00
2018-05-27T04:32:23.415Z,97.00
2018-05-27T04:34:50.939Z,97.00
2018-05-27T04:37:18.836Z,97.00
2018-05-27T04:39:46.345Z,97.00
2018-05-27T04:42:13.859Z,97.00
2018-05-27T04:44:41.365Z,97.00
2018-05-27T04:47:08.850Z,97.00
2018-05-27T04:49:36.738Z,96.00
2018-05-27T04:52:04.247Z,96.00
2018-05-27T04:54:31.756Z,95.60
2018-05-27T04:56:59.285Z,95.20
2018-05-27T04:59:26.799Z,95.30
2018-05-27T05:01:54.329Z,94.80
2018-05-27T05:04:21.812Z,94.10
2018-05-27T05:06:50.260Z,93.70
2018-05-27T05:09:18.405Z,93.90
2018-05-27T05:11:48.615Z,92.60
2018-05-27T05:14:16.114Z,92.60
2018-05-27T05:16:43.613Z,91.60
2018-05-27T05:19:11.137Z,91.30
2018-05-27T05:21:38.635Z,90.80
2018-05-27T05:24:06.460Z,90.30
2018-05-27T05:26:33.961Z,89.60
2018-05-27T05:29:01.476Z,89.10
2018-05-27T05:31:29.012Z,88.80
2018-05-27T05:33:57.242Z,88.20
2018-05-27T05:36:24.786Z,87.60
2018-05-27T05:38:52.325Z,87.80
2018-05-27T05:41:19.841Z,87.20
2018-05-27T05:43:47.781Z,86.80
2018-05-27T05:46:15.278Z,86.80
2018-05-27T05:48:43.171Z,85.60
2018-05-27T05:51:11.587Z,85.60
2018-05-27T05:53:39.075Z,85.50
2018-05-27T05:56:07.155Z,84.30
2018-05-27T05:58:34.666Z,84.30
2018-05-27T06:01:02.284Z,84.00
2018-05-27T06:03:30.476Z,83.60
2018-05-27T06:05:58.063Z,83.10
2018-05-27T06:08:25.945Z,82.80
2018-05-27T06:10:53.447Z,82.80
2018-05-27T06:13:20.942Z,82.60
2018-05-27T06:15:48.437Z,82.10
2018-05-27T06:18:15.956Z,82.00
2018-05-27T06:20:44.694Z,81.60
2018-05-27T06:23:12.192Z,82.00
2018-05-27T06:25:39.713Z,81.90
2018-05-27T06:28:07.228Z,82.60
2018-05-27T06:30:56.239Z,82.80
2018-05-27T06:33:24.015Z,82.50
2018-05-27T06:35:51.583Z,81.30
2018-05-27T06:38:19.183Z,81.40
2018-05-27T06:40:47.264Z,79.20
2018-05-27T06:43:15.808Z,79.20
2018-05-27T06:45:43.439Z,79.00
2018-05-27T06:48:11.514Z,79.80
2018-05-27T06:50:39.030Z,79.40
2018-05-27T06:53:06.910Z,78.40
2018-05-27T06:55:34.819Z,78.40
2018-05-27T06:58:02.322Z,78.30
2018-05-27T07:00:30.214Z,78.00
2018-05-27T07:02:57.701Z,78.00
2018-05-27T07:05:25.222Z,77.80
2018-05-27T07:07:52.715Z,77.70
2018-05-27T07:10:20.226Z,77.10
2018-05-27T07:12:48.126Z,76.80
2018-05-27T07:15:15.613Z,76.80
2018-05-27T07:17:43.116Z,76.30
2018-05-27T07:20:10.645Z,76.20
2018-05-27T07:22:38.150Z,76.30
2018-05-27T07:25:05.704Z,75.90
2018-05-27T07:27:33.225Z,75.90
2018-05-27T07:30:01.152Z,74.60
2018-05-27T07:32:28.652Z,74.60
2018-05-27T07:34:56.572Z,74.30
2018-05-27T07:37:24.062Z,74.30
2018-05-27T07:39:51.597Z,74.20
2018-05-27T07:42:19.151Z,73.70
2018-05-27T07:44:46.651Z,74.00
2018-05-27T07:47:14.567Z,73.00
2018-05-27T07:49:42.061Z,73.00
2018-05-27T07:52:09.575Z,72.70
2018-05-27T07:54:37.891Z,72.20
2018-05-27T07:57:05.377Z,72.20
2018-05-27T07:59:33.264Z,72.40
2018-05-27T08:02:00.772Z,72.40
2018-05-27T08:04:28.265Z,71.80
2018-05-27T08:06:55.769Z,71.40
2018-05-27T08:09:23.266Z,71.20
2018-05-27T08:11:51.168Z,70.50
2018-05-27T08:14:18.677Z,70.60
2018-05-27T08:16:46.235Z,70.30
2018-05-27T08:19:13.742Z,69.60
2018-05-27T08:21:41.273Z,69.00
2018-05-27T08:24:08.777Z,68.10
2018-05-27T08:26:36.323Z,68.40
2018-05-27T08:29:03.866Z,68.20
2018-05-27T08:31:31.393Z,68.30
2018-05-27T08:33:59.306Z,68.40
2018-05-27T08:36:26.846Z,68.40
2018-05-27T08:38:54.361Z,69.40
2018-05-27T08:41:21.876Z,69.40
2018-05-27T08:43:49.399Z,69.70
2018-05-27T08:46:16.950Z,69.60
2018-05-27T08:48:44.858Z,69.10
2018-05-27T08:51:12.375Z,69.10
2018-05-27T08:53:40.277Z,69.70
2018-05-27T08:56:10.886Z,69.70
2018-05-27T08:58:38.440Z,69.00
2018-05-27T09:01:05.942Z,68.60
2018-05-27T09:03:33.421Z,68.40
2018-05-27T09:06:00.943Z,68.00
2018-05-27T09:08:28.463Z,67.60
2018-05-27T09:10:56.361Z,68.10
2018-05-27T09:13:23.895Z,68.10
2018-05-27T09:15:51.815Z,68.10
2018-05-27T09:18:19.318Z,68.10
2018-05-27T09:20:46.826Z,67.70
2018-05-27T09:23:14.345Z,67.80
2018-05-27T09:25:41.842Z,67.90
2018-05-27T09:28:09.342Z,67.40
2018-05-27T09:30:37.254Z,66.20
2018-05-27T09:33:04.772Z,66.20
2018-05-27T09:35:32.269Z,65.30
2018-05-27T09:37:59.773Z,65.60
2018-05-27T09:40:27.676Z,64.60
2018-05-27T09:42:55.173Z,64.60
2018-05-27T09:45:22.751Z,64.30
2018-05-27T09:47:50.224Z,64.20
2018-05-27T09:50:18.108Z,63.90
2018-05-27T09:52:45.646Z,63.90
2018-05-27T09:55:13.530Z,64.10
2018-05-27T09:57:41.024Z,64.00
2018-05-27T10:00:08.572Z,64.10
2018-05-27T10:02:36.156Z,64.10
2018-05-27T10:05:03.717Z,63.60
2018-05-27T10:07:31.198Z,63.60
2018-05-27T10:09:59.205Z,64.10
2018-05-27T10:12:26.726Z,64.10
2018-05-27T10:14:54.648Z,64.80
2018-05-27T10:17:22.160Z,64.80
2018-05-27T10:19:50.086Z,62.80
2018-05-27T10:22:17.613Z,62.80
2018-05-27T10:24:45.148Z,62.70
2018-05-27T10:27:12.654Z,62.80
2018-05-27T10:29:40.185Z,63.60
2018-05-27T10:32:07.707Z,62.90
2018-05-27T10:34:35.631Z,62.70
2018-05-27T10:37:03.169Z,62.70
2018-05-27T10:39:30.775Z,64.00
2018-05-27T10:41:58.713Z,63.60
2018-05-27T10:44:26.244Z,63.60
2018-05-27T10:46:53.742Z,63.80
2018-05-27T10:49:21.269Z,63.10
2018-05-27T10:51:48.776Z,62.80
2018-05-27T10:54:16.292Z,62.60
2018-05-27T10:56:43.794Z,61.70
2018-05-27T10:59:11.281Z,61.20
2018-05-27T11:01:38.865Z,61.00
2018-05-27T11:04:06.735Z,61.20
2018-05-27T11:06:34.246Z,61.20
2018-05-27T11:09:02.165Z,60.60
2018-05-27T11:11:29.668Z,60.60
2018-05-27T11:13:57.166Z,60.50
2018-05-27T11:16:24.670Z,60.00
2018-05-27T11:18:52.184Z,58.70
2018-05-27T11:21:19.689Z,60.50
2018-05-27T11:23:47.613Z,61.00
2018-05-27T11:26:15.105Z,61.00
2018-05-27T11:28:42.622Z,60.80
2018-05-27T11:31:10.140Z,59.80
2018-05-27T11:33:38.060Z,60.00
2018-05-27T11:36:05.582Z,60.00
2018-05-27T11:38:33.298Z,60.70
2018-05-27T11:41:00.800Z,61.00
2018-05-27T11:43:28.331Z,60.10
2018-05-27T11:45:55.845Z,59.30
2018-05-27T11:48:23.377Z,60.20
2018-05-27T11:50:50.863Z,59.70
2018-05-27T11:53:18.486Z,60.40
2018-05-27T11:55:46.030Z,61.10
2018-05-27T11:58:13.948Z,60.40
2018-05-27T12:00:41.433Z,60.30
2018-05-27T12:03:08.962Z,59.50
2018-05-27T12:05:36.456Z,58.80
2018-05-27T12:08:03.968Z,59.00
2018-05-27T12:10:31.578Z,59.50
2018-05-27T12:12:59.100Z,59.70
2018-05-27T12:15:26.765Z,57.90
2018-05-27T12:17:54.302Z,57.90
2018-05-27T12:20:21.810Z,58.00
2018-05-27T12:22:49.299Z,57.70
2018-05-27T12:25:16.813Z,57.50
2018-05-27T12:27:44.341Z,58.60
2018-05-27T12:30:11.905Z,58.60
2018-05-27T12:32:39.417Z,57.90
2018-05-27T12:35:06.961Z,57.80
2018-05-27T12:37:34.471Z,56.60
2018-05-27T12:40:01.998Z,55.70
2018-05-27T12:42:29.967Z,56.00
2018-05-27T12:44:57.861Z,55.20
2018-05-27T12:47:25.417Z,55.20
2018-05-27T12:49:52.923Z,55.60
2018-05-27T12:52:20.442Z,55.70
2018-05-27T12:54:47.949Z,55.30
2018-05-27T12:57:15.706Z,55.80
2018-05-27T12:59:43.682Z,56.20
2018-05-27T13:02:11.196Z,56.20
2018-05-27T13:04:38.690Z,56.40
2018-05-27T13:07:06.282Z,56.10
2018-05-27T13:09:33.876Z,57.50
2018-05-27T13:12:01.362Z,57.40
2018-05-27T13:14:28.906Z,57.20
2018-05-27T13:16:57.167Z,58.10
2018-05-27T13:19:24.734Z,58.10
2018-05-27T13:21:52.302Z,58.60
2018-05-27T13:24:20.037Z,58.10
2018-05-27T13:26:47.538Z,58.90
2018-05-27T13:29:15.079Z,58.40
2018-05-27T13:31:42.641Z,57.70
2018-05-27T13:34:10.371Z,57.90
2018-05-27T13:36:37.888Z,58.10
2018-05-27T13:39:05.402Z,59.10
2018-05-27T13:41:32.952Z,59.40
2018-05-27T13:44:00.442Z,60.50
2018-05-27T13:46:27.966Z,60.50
2018-05-27T13:48:55.496Z,61.20
2018-05-27T13:51:23.042Z,60.50
2018-05-27T13:53:50.972Z,60.10
2018-05-27T13:56:18.492Z,60.10
2018-05-27T13:58:49.225Z,60.00
2018-05-27T14:01:16.847Z,60.00
2018-05-27T14:03:44.763Z,61.10
2018-05-27T14:06:12.295Z,61.10
2018-05-27T14:08:39.800Z,60.50
2018-05-27T14:11:07.294Z,60.70
2018-05-27T14:13:34.823Z,60.20
2018-05-27T14:16:02.355Z,60.40
2018-05-27T14:18:29.867Z,61.30
2018-05-27T14:20:57.373Z,61.20
2018-05-27T14:23:24.873Z,61.20
2018-05-27T14:25:52.388Z,61.40
2018-05-27T14:28:19.893Z,61.80
2018-05-27T14:30:47.412Z,62.30
2018-05-27T14:33:14.951Z,62.10
2018-05-27T14:35:42.457Z,61.90
2018-05-27T14:38:10.393Z,62.40
2018-05-27T14:40:37.901Z,62.40
2018-05-27T14:43:05.795Z,62.60
2018-05-27T14:45:33.310Z,62.60
2018-05-27T14:48:00.817Z,62.60
2018-05-27T14:50:28.393Z,62.70
2018-05-27T14:52:55.869Z,63.00
2018-05-27T14:55:23.399Z,63.30
2018-05-27T14:57:50.921Z,63.60
2018-05-27T15:00:18.824Z,64.40
2018-05-27T15:02:46.349Z,64.40
2018-05-27T15:05:14.276Z,65.20
2018-05-27T15:07:41.786Z,65.20
2018-05-27T15:10:09.412Z,65.30
2018-05-27T15:12:37.371Z,65.60
2018-05-27T15:15:04.874Z,65.60
2018-05-27T15:17:32.410Z,66.00
2018-05-27T15:20:00.336Z,67.00
2018-05-27T15:22:28.190Z,67.00
2018-05-27T15:24:55.697Z,67.20
2018-05-27T15:27:23.585Z,67.60
2018-05-27T15:29:51.321Z,67.60
2018-05-27T15:32:19.233Z,68.10
2018-05-27T15:34:46.772Z,68.10
2018-05-27T15:37:14.315Z,68.10
2018-05-27T15:39:41.862Z,68.50
2018-05-27T15:42:09.761Z,69.20
2018-05-27T15:44:37.277Z,69.20
2018-05-27T15:47:04.782Z,69.40
2018-05-27T15:49:32.303Z,69.80
2018-05-27T15:52:00.205Z,68.40
2018-05-27T15:54:27.703Z,68.30
2018-05-27T15:56:55.312Z,68.20
2018-05-27T15:59:22.822Z,69.70
2018-05-27T16:01:50.313Z,70.80
2018-05-27T16:04:18.439Z,72.20
2018-05-27T16:06:45.961Z,72.20
2018-05-27T16:09:13.493Z,73.20
2018-05-27T16:11:41.021Z,74.50
2018-05-27T16:14:08.632Z,77.00
2018-05-27T16:16:36.145Z,80.50
2018-05-27T16:19:03.663Z,85.80
2018-05-27T16:21:31.573Z,87.80
2018-05-27T16:23:59.129Z,91.00
2018-05-27T16:26:26.813Z,94.00
2018-05-27T16:28:54.705Z,96.00
2018-05-27T16:31:22.239Z,96.00
2018-05-27T16:33:50.149Z,97.00
2018-05-27T16:36:17.649Z,97.00
2018-05-27T16:38:45.556Z,97.00
2018-05-27T16:41:13.120Z,97.00
2018-05-27T16:43:40.636Z,97.00
2018-05-27T16:46:08.158Z,97.00
2018-05-27T16:48:35.650Z,97.00
2018-05-27T16:51:03.162Z,97.00
2018-05-27T16:53:30.720Z,97.00
2018-05-27T16:55:58.288Z,97.00
2018-05-27T16:58:25.817Z,97.00
2018-05-27T17:00:53.397Z,97.00
2018-05-27T17:03:20.923Z,97.00
2018-05-27T17:05:49.229Z,97.00
2018-05-27T17:08:16.768Z,97.00
2018-05-27T17:10:44.465Z,97.00
2018-05-27T17:13:15.054Z,97.00
2018-05-27T17:15:42.858Z,97.00
2018-05-27T17:18:10.853Z,97.00
2018-05-27T17:20:39.297Z,97.00
2018-05-27T17:23:06.925Z,97.00
2018-05-27T17:25:34.493Z,97.00
2018-05-27T17:28:03.421Z,97.00
2018-05-27T17:30:31.367Z,97.00
2018-05-27T17:32:59.657Z,97.00
2018-05-27T17:35:27.201Z,97.00
2018-05-27T17:37:54.907Z,97.00
2018-05-27T17:40:22.891Z,97.00
2018-05-27T17:42:50.858Z,97.00
2018-05-27T17:45:18.841Z,97.00
2018-05-27T17:47:46.937Z,97.00
2018-05-27T17:50:14.617Z,97.00
2018-05-27T17:52:42.229Z,97.00
2018-05-27T17:55:09.843Z,97.00
2018-05-27T17:57:37.459Z,97.00
2018-05-27T18:00:05.472Z,97.00
2018-05-27T18:02:33.180Z,97.00
2018-05-27T18:05:01.238Z,97.00
2018-05-27T18:07:28.834Z,97.00
2018-05-27T18:09:56.366Z,97.00
2018-05-27T18:12:24.526Z,97.00
2018-05-27T18:14:52.512Z,97.00
2018-05-27T18:17:20.116Z,97.00
2018-05-27T18:19:47.651Z,97.00
2018-05-27T18:22:15.153Z,97.00
2018-05-27T18:24:42.666Z,97.00
2018-05-27T18:27:10.206Z,97.00
2018-05-27T18:29:38.099Z,97.00
2018-05-27T18:32:06.396Z,97.00
2018-05-27T18:34:33.916Z,97.00
2018-05-27T18:37:02.297Z,97.00
2018-05-27T18:39:29.840Z,97.00
2018-05-27T18:41:57.745Z,97.00
2018-05-27T18:44:25.276Z,97.00
2018-05-27T18:46:56.093Z,97.00
2018-05-27T18:49:27.629Z,97.00
2018-05-27T18:51:55.137Z,97.00
2018-05-27T18:54:22.634Z,97.00
2018-05-27T18:56:50.122Z,97.00
2018-05-27T18:59:18.118Z,97.00
2018-05-27T19:01:45.602Z,97.00
2018-05-27T19:04:13.146Z,97.00
2018-05-27T19:06:40.664Z,97.00
2018-05-27T19:09:08.570Z,97.00
2018-05-27T19:11:36.063Z,97.00
2018-05-27T19:14:03.620Z,97.00
2018-05-27T19:16:31.140Z,97.00
2018-05-27T19:18:58.707Z,97.00
2018-05-27T19:21:26.228Z,97.00
2018-05-27T19:23:54.566Z,97.00
2018-05-27T19:26:22.079Z,97.00
2018-05-27T19:28:49.606Z,97.00
2018-05-27T19:31:17.141Z,97.00
2018-05-27T19:33:44.941Z,97.00
2018-05-27T19:36:12.457Z,97.00
2018-05-27T19:38:40.167Z,97.00
2018-05-27T19:41:08.088Z,97.00
2018-05-27T19:43:36.637Z,97.00
2018-05-27T19:46:04.150Z,97.00
2018-05-27T19:48:31.648Z,97.00
2018-05-27T19:50:59.597Z,97.00
2018-05-27T19:53:27.543Z,97.00
2018-05-27T19:55:55.113Z,97.00
2018-05-27T19:58:23.033Z,97.00
2018-05-27T20:00:50.676Z,97.00
2018-05-27T20:03:18.556Z,97.00
2018-05-27T20:05:46.076Z,97.00
2018-05-27T20:08:14.787Z,97.00
2018-05-27T20:10:42.381Z,97.00
2018-05-27T20:13:09.888Z,97.00
2018-05-27T20:15:37.449Z,97.00
2018-05-27T20:18:04.976Z,97.00
2018-05-27T20:20:32.498Z,97.00
2018-05-27T20:23:00.019Z,97.00
2018-05-27T20:25:27.590Z,97.00
2018-05-27T20:27:55.089Z,97.00
2018-05-27T20:30:22.593Z,97.00
2018-05-27T20:32:50.082Z,97.00
2018-05-27T20:35:18.605Z,97.00
2018-05-27T20:37:46.488Z,97.00
2018-05-27T20:40:14.391Z,97.00
2018-05-27T20:42:42.000Z,97.00
2018-05-27T20:45:09.988Z,97.00
2018-05-27T20:47:37.887Z,97.00
2018-05-27T20:50:05.372Z,97.00
2018-05-27T20:52:32.923Z,97.00
2018-05-27T20:55:00.416Z,97.00
2018-05-27T20:57:28.297Z,97.00
2018-05-27T20:59:56.200Z,97.00
2018-05-27T21:02:23.696Z,97.00
2018-05-27T21:04:51.208Z,97.00
2018-05-27T21:07:18.738Z,97.00
2018-05-27T21:09:46.239Z,97.00
2018-05-27T21:12:13.788Z,97.00
2018-05-27T21:14:41.306Z,97.00
2018-05-27T21:17:09.215Z,97.00
2018-05-27T21:19:36.752Z,97.00
2018-05-27T21:22:04.242Z,97.00
2018-05-27T21:24:31.742Z,97.00
2018-05-27T21:26:59.677Z,97.00
2018-05-27T21:29:27.184Z,97.00
2018-05-27T21:31:54.683Z,97.00
2018-05-27T21:34:22.187Z,97.00
2018-05-27T21:36:49.695Z,97.00
2018-05-27T21:39:17.213Z,97.00
2018-05-27T21:41:44.697Z,97.00
2018-05-27T21:44:12.213Z,97.00
2018-05-27T21:46:39.726Z,97.00
2018-05-27T21:49:07.217Z,97.00
2018-05-27T21:51:35.122Z,97.00
2018-05-27T21:54:02.626Z,97.00
2018-05-27T21:56:30.151Z,97.00
2018-05-27T21:58:57.653Z,97.00
2018-05-27T22:01:25.542Z,97.00
2018-05-27T22:03:53.062Z,97.00
2018-05-27T22:06:20.597Z,97.00
2018-05-27T22:08:48.114Z,97.00
2018-05-27T22:11:15.674Z,97.00
2018-05-27T22:13:43.208Z,97.00
2018-05-27T22:16:11.144Z,97.00
2018-05-27T22:18:38.673Z,97.00
2018-05-27T22:21:06.214Z,97.00
2018-05-27T22:23:33.735Z,97.00
2018-05-27T22:26:01.224Z,97.00
2018-05-27T22:28:28.739Z,97.00
2018-05-27T22:31:00.712Z,97.00
2018-05-27T22:33:28.228Z,97.00
2018-05-27T22:35:55.728Z,97.00
2018-05-27T22:38:23.214Z,97.00
2018-05-27T22:40:50.739Z,97.00
2018-05-27T22:43:18.227Z,97.00
2018-05-27T22:45:47.091Z,97.00
2018-05-27T22:48:14.620Z,97.00
2018-05-27T22:50:42.137Z,97.00
2018-05-27T22:53:10.056Z,97.00
2018-05-27T22:55:37.555Z,97.00
2018-05-27T22:58:05.482Z,97.00
2018-05-27T23:00:33.954Z,97.00
2018-05-27T23:03:01.473Z,97.00
2018-05-27T23:05:29.361Z,97.00
2018-05-27T23:07:56.865Z,97.00
2018-05-27T23:10:24.355Z,97.00
2018-05-27T23:12:51.858Z,97.00
2018-05-27T23:15:19.353Z,97.00
2018-05-27T23:17:47.230Z,97.00
2018-05-27T23:20:15.141Z,97.00
2018-05-27T23:22:42.653Z,97.00
2018-05-27T23:25:10.149Z,97.00
2018-05-27T23:27:37.654Z,97.00
2018-05-27T23:30:05.546Z,97.00
2018-05-27T23:32:35.028Z,97.00
2018-05-27T23:35:02.932Z,97.00
2018-05-27T23:37:30.488Z,97.00
2018-05-27T23:39:58.002Z,97.00
2018-05-27T23:42:25.520Z,97.00
2018-05-27T23:44:53.024Z,97.00
2018-05-27T23:47:20.928Z,97.00
2018-05-27T23:49:48.479Z,97.00
2018-05-27T23:52:19.788Z,97.00
2018-05-27T23:54:47.288Z,97.00
2018-05-27T23:57:14.810Z,97.00
2018-05-27T23:59:42.700Z,97.00
